The Internet Pinball Serial Number Database or IPSND collects serial numbers of pinball machines and publishes a database of these on the Internet. Our goal is to make available a registration of all pinball machines in existence and allow tools for slicing, dicing and visualization of the data.

Games: 6,217  Serials: 50,700  Visitors: 29,655,515  Members: 3,814  Photos: 27,606  Lat/Lng: 25,013  Masks: 50,700(815.51 %)  Traits: 503  Nudges: 140,415  Backglasses: 1,862
  Most Serials: Twilight Zone(1,058)  Most Submissions: Dennis Braun(3,492)  Most Points: Rod McLarge(27,988)  Highest Quality: Jim Butler(9.15)  Most Nudges: King of Pinball(18,834)
Submitter: Fun House
Member Since: Thursday, September 22, 2016
Submissions: 2,510 (4th)
SerialBot: 20,523 Points Total (3rd), 7.22 Average Score (3,094th)
Nudges: 2,406(16th)
DateGameSerialNumberGame PartSerialBotDetails
 Item 1 to 100 of 2510
Page:of 26 Page size:
6/18/2019 PIN·BOT 549I09469 Other Parts 549I09469
6/17/2019 Taxi 553I166480 Other Parts 553I166480
6/17/2019 Taxi 553I166368 Complete Game 553I166368
6/17/2019 Fish Tales 50005024192 Complete Game 50005024192
6/17/2019 Game of Thrones (Pro) 257285 Complete Game 257285
6/17/2019 Revenge From Mars 59570113709 Other Parts 59570113709
6/17/2019 Revenge From Mars 53370113928 Complete Game 53370113928
6/15/2019 Eight Ball Deluxe EED1046 Complete Game EED1046
6/13/2019 Star Wars Episode I 57269101151 Complete Game 57269101151
6/13/2019 The Simpsons Pinball Party E170023 Complete Game E170023
6/13/2019 Revenge From Mars 59570100794 Other Parts 59570100794
6/13/2019 Revenge From Mars 50270100392 Complete Game 50270100392
6/11/2019 Fish Tales 50005023546 Complete Game 50005023546
6/10/2019 Terminator 2: Judgment Day 50013I975595 Other Parts 50013I975595
6/10/2019 World Cup Soccer 53331109072 Complete Game 53331109072
6/9/2019 Star Trek EST8853 Complete Game EST8853
6/9/2019 Disney TRON Legacy E233140 Complete Game E233140
6/8/2019 Austin Powers™ 158939 Complete Game 158939
6/7/2019 Twilight Zone 52720121782 Other Parts 52720121782
6/7/2019 Twilight Zone 52920961020 Complete Game 52920961020
6/6/2019 Four Million B.C. 3132 Complete Game 3132
6/3/2019 Revenge From Mars 59570109497 Complete Game 59570109497
6/2/2019 Twilight Zone 51320144921 Complete Game 51320144921
6/2/2019 Red & Ted's Road Show 53324105528 Other Parts 53324105528
6/2/2019 World Cup Soccer 53331107122 Complete Game 53331107122
6/2/2019 Genie 08572 Complete Game 08572
6/2/2019 The Shadow 53332104691 Complete Game 53332104691
6/1/2019 Pirates of the Caribbean Collector’s Edition 08731177 Complete Game 08731177
6/1/2019 Twilight Zone 50220133102 Complete Game 50220133102
6/1/2019 Skyrocket 1564 Complete Game 1564
5/31/2019 Theatre of Magic 53339100061 Other Parts 53339100061
5/31/2019 The Shadow 53332104252 Other Parts 53332104252
5/30/2019 EPA9673 Other Parts EPA9673
5/30/2019 Fathom EFA3765 Complete Game EFA3765
5/29/2019 Indiana Jones: The Pinball Adventure 53317299231 Complete Game 53317299231
5/29/2019 Funhouse 50003573557 Other Parts 50003573557
5/29/2019 Theatre of Magic 52239102348 Other Parts 52239102348
5/29/2019 Fish Tales 50005I026812 Other Parts 50005I026812
5/29/2019 World Cup Soccer 51331105691 Complete Game 51331105691
5/29/2019 World Cup Soccer 50231104947 Complete Game 50231104947
5/29/2019 No Fear: Dangerous Sports 50225102622 Complete Game 50225102622
5/29/2019 Dr. Dude And His Excellent Ray 2016I495773 Complete Game 2016I495773
5/29/2019 The Shadow 53332104665 Other Parts 53332104665
5/29/2019 Dirty Harry 52230110885 Complete Game 52230110885
5/28/2019 Silverball Mania ESM7551 Complete Game ESM7551
5/28/2019 Evel Knievel EEK3383 Complete Game EEK3383
5/28/2019 White Water 50218849260 Complete Game 50218849260
5/28/2019 Black Knight 2000 563I245749 Complete Game 563I245749
5/28/2019 No Fear: Dangerous Sports 50225100429 Other Parts 50225100429
5/28/2019 Judge Dredd 23320218122 Other Parts 23320218122
5/28/2019 Bram Stoker's Dracula 51001063932 Other Parts 51001063932
5/28/2019 The Addams Family 20017I042684 Other Parts 20017I042684
5/28/2019 Creature from the Black Lagoon 20218010071 Complete Game 20218010071
5/28/2019 Silverball Mania ESM6443 Complete Game ESM6443
5/28/2019 Twilight Zone 52020079801 Other Parts 52020079801
5/28/2019 Twilight Zone 53220148041 Complete Game 53220148041
5/27/2019 PIN·BOT 54904960 Complete Game 54904960
5/26/2019 Creature from the Black Lagoon 20218010921 Complete Game 20218010921
5/26/2019 The Walking Dead (Premium) E261158 Complete Game E261158
5/26/2019 Creature from the Black Lagoon 22718921470 Other Parts 22718921470
5/26/2019 Twilight Zone 53220070342 Complete Game 53220070342
5/26/2019 Red & Ted's Road Show 50724102004 Complete Game 50724102004
5/26/2019 The Shadow 53332103586 Complete Game 53332103586
5/26/2019 Metallica Master of Puppets (Limited Edition) 241075 Complete Game 241075
5/25/2019 Terminator 2: Judgment Day 50013I779780 Other Parts 50013I779780
5/25/2019 Monster Bash 51365400483 Complete Game 51365400483
5/25/2019 Revenge From Mars 59570111880 Complete Game 59570111880
5/25/2019 Junk Yard 50252100495 Complete Game 50252100495
5/25/2019 Terminator 2: Judgment Day 50013773149 Complete Game 50013773149
5/25/2019 Star Wars Episode I 59569401742 Complete Game 59569401742
5/25/2019 X-Men Wolverine LE 235816 Complete Game 235816
5/24/2019 Revenge From Mars 59570106993 Complete Game 59570106993
5/24/2019 Monster Bash 50765400743 Complete Game 50765400743
5/24/2019 Batman E220390 Complete Game E220390
5/24/2019 Monster Bash 51465403307 Complete Game 51465403307
5/23/2019 The Flintstones 50229102340 Complete Game 50229102340
5/23/2019 34146 Other Parts 34146
5/23/2019 Indiana Jones: The Pinball Adventure 52517243782 Complete Game 52517243782
5/23/2019 Funhouse 50003I579072 Complete Game 50003I579072
5/23/2019 The Shadow 50732102738 Other Parts 50732102738
5/23/2019 Fan-Tas-Tic 140827 Complete Game 140827
5/22/2019 Cue Ball Wizard 99566 Complete Game 99566
5/21/2019 Star Trek: The Next Generation 50223440342 Complete Game 50223440342
5/20/2019 Revenge From Mars 51370107121 Other Parts 51370107121
5/19/2019 Star Trek: The Next Generation 53323370221 Complete Game 53323370221
5/19/2019 No Fear: Dangerous Sports 53325100181 Complete Game 53325100181
5/19/2019 Fish Tales 50005020044 Other Parts 50005020044
5/19/2019 Fish Tales 50005020696 Other Parts 50005020696
5/19/2019 Doctor Who 20106708210 Other Parts 20106708210
5/19/2019 Doctor Who 20106707610 Complete Game 20106707610
5/19/2019 Revenge From Mars 50270111617 Complete Game 50270111617
5/19/2019 Eight Ball EEB19735 Complete Game EEB19735
5/18/2019 World Cup Soccer 51031101669 Complete Game 51031101669
5/18/2019 High Speed 541I83626 Complete Game 541I83626
5/18/2019 Indiana Jones E217803 Complete Game E217803
5/18/2019 Spooky F138455 Complete Game F138455
5/18/2019 Champ 5361 Complete Game 5361
5/18/2019 24™ E222484 Complete Game E222484
5/18/2019 Funhouse 50003I576644 Other Parts 50003I576644
5/18/2019 Funhouse 50003I578920 Complete Game 50003I578920

Supported Browsers
Back 5 | Random | Forward 5 | List ]